Sprankle Mills, Pennsylvania
Current Conditions -  °F | °C
As of 2:53 PM on Tuesday 21 Oct 2014 (Local Time) from KDUJ Reporting Station
Light Rain Light Rain  
Wind Chill: 45°   Ceiling: 4000
Heat Index: 48°   Visibility: 8mi
Dew Point: 46°   Wind: 7mph
Humidity: 93%   Direction: 310°NW
Pressure: 29.85"   Gusts: NA
Location:  41°N, 79.11°W
Report Text: KDUJ 211853Z AUTO 31006KT 8SM -RA BKN040 OVC050 09/08 A2985 RMK AO2 SLP112 P0004 T00890078
Loading
Personal Weather Stations






























Interactive Weather Map
Tropical Storm Tracking
New forecast layout! Learn more

10-Day Weather Forecast

Advertisements
Track Severe Weather on mobile